Time;durP1;ratioP1;P1;durP2;ratioP2;P2;SDS_P1;SDS_P2;PMS_P1;PMS_P2;Temp;Humidity;BMP_temperature;BMP_pressure;BME280_temperature;BME280_humidity;BME280_pressure;Samples;Min_cycle;Max_cycle;Signal;HPM_P1;HPM_P2
2021/05/16 00:01:44;;;;;;;;;;;;;;;15.75;68.07;99873.84;5087555;28;20055;-91
2021/05/16 00:04:29;;;;;;;7.97;5.55;;;;;;;15.80;67.74;99880.97;5086075;28;19913;-90
2021/05/16 00:07:14;;;;;;;8.77;4.75;;;;;;;15.80;67.99;99880.97;5090545;28;20056;-90
2021/05/16 00:10:18;;;;;;;10.30;7.20;;;;;;;15.80;67.79;99875.47;5082496;28;20044;-91
2021/05/16 00:13:22;;;;;;;14.70;8.13;;;;;;;15.73;68.38;99887.16;5076568;28;20046;-91
2021/05/16 00:16:07;;;;;;;11.45;7.57;;;;;;;15.83;68.04;99877.50;5083495;28;20409;-91
2021/05/16 00:18:52;;;;;;;;;;;;;;;15.80;68.04;99880.97;5083675;28;20051;-92
2021/05/16 00:21:37;;;;;;;9.57;7.38;;;;;;;15.71;68.40;99878.50;5080585;28;19912;-92
2021/05/16 00:24:22;;;;;;;7.85;5.40;;;;;;;15.62;69.19;99874.44;5083461;28;20059;-90
2021/05/16 00:27:07;;;;;;;12.63;6.95;;;;;;;15.53;69.99;99882.94;5077806;28;20412;-92
2021/05/16 00:29:52;;;;;;;;;;;;;;;15.41;70.69;99881.16;5082805;28;20055;-91
2021/05/16 00:36:00;;;;;;;8.18;7.20;;;;;;;15.46;69.72;99888.28;5082323;28;20056;-90
2021/05/16 00:38:46;;;;;;;12.27;7.60;;;;;;;15.59;69.26;99886.16;5084883;28;20055;-91
2021/05/16 00:41:31;;;;;;;;;;;;;;;15.61;69.14;99872.84;5085616;28;20067;-90
2021/05/16 00:44:35;;;;;;;9.32;7.32;;;;;;;15.56;69.24;99878.66;5079466;28;20376;-90
2021/05/16 00:47:39;;;;;;;13.20;8.20;;;;;;;15.50;69.64;99871.88;5084282;28;20052;-91
2021/05/16 00:50:43;;;;;;;9.35;7.60;;;;;;;15.43;69.64;99871.78;5080025;28;20602;-91
2021/05/16 00:56:50;;;;;;;11.77;8.23;;;;;;;15.26;69.89;99851.16;5077150;28;20051;-91
2021/05/16 00:59:37;;;;;;;11.82;6.47;;;;;;;15.32;69.64;99850.50;5081179;28;20039;-91
2021/05/16 01:02:23;;;;;;;10.45;9.38;;;;;;;15.31;69.95;99848.13;5067960;28;20043;-91
2021/05/16 01:05:11;;;;;;;11.25;8.65;;;;;;;15.37;69.14;99852.91;5082865;28;20047;-91
2021/05/16 01:07:56;;;;;;;17.90;8.73;;;;;;;15.25;69.71;99844.91;5079480;28;20047;-91
2021/05/16 01:10:43;;;;;;;11.25;8.35;;;;;;;15.25;70.35;99864.06;5078343;28;20047;-91
2021/05/16 01:13:28;;;;;;;13.55;8.93;;;;;;;15.36;69.92;99867.78;5083777;28;20048;-91
2021/05/16 01:16:15;;;;;;;13.43;8.18;;;;;;;15.32;70.26;99872.41;5083430;28;20047;-90
2021/05/16 01:19:02;;;;;;;16.00;8.88;;;;;;;15.40;69.57;99865.06;5082261;28;20044;-90
2021/05/16 01:21:56;;;;;;;11.88;9.27;;;;;;;15.38;69.31;99873.69;5068647;28;20059;-91
2021/05/16 01:24:45;;;;;;;14.20;10.07;;;;;;;15.26;69.73;99868.41;5093706;28;20397;-91
2021/05/16 01:27:30;;;;;;;9.35;8.25;;;;;;;15.20;69.79;99875.34;5083854;28;20047;-90
2021/05/16 01:30:15;;;;;;;;;;;;;;;15.16;70.43;99871.75;5080640;28;20047;-91
2021/05/16 01:33:03;;;;;;;;;;;;;;;15.16;70.15;99868.22;5069283;28;19912;-91
2021/05/16 01:36:06;;;;;;;12.38;8.07;;;;;;;15.13;69.48;99868.97;5078150;28;19916;-91
2021/05/16 01:38:52;;;;;;;9.77;8.77;;;;;;;14.92;70.35;99872.13;5068816;28;20554;-93
2021/05/16 01:41:38;;;;;;;13.10;8.52;;;;;;;14.89;70.76;99872.84;5068687;28;20504;-90
2021/05/16 01:44:42;;;;;;;9.70;8.20;;;;;;;14.90;69.77;99879.91;5085639;28;20051;-90
2021/05/16 01:47:27;;;;;;;9.73;8.73;;;;;;;14.96;69.31;99886.66;5084627;28;20051;-91
2021/05/16 01:50:15;;;;;;;16.08;9.65;;;;;;;14.87;69.86;99891.59;5081501;28;20047;-92
2021/05/16 01:56:07;;;;;;;13.10;9.77;;;;;;;14.54;71.18;99890.19;5086629;28;20048;-92
2021/05/16 01:58:55;;;;;;;16.27;8.48;;;;;;;14.68;70.87;99886.16;5087188;28;20523;-92
2021/05/16 02:01:41;;;;;;;10.15;8.50;;;;;;;14.65;70.42;99881.41;5085783;28;20051;-91
2021/05/16 02:04:28;;;;;;;14.07;8.65;;;;;;;14.72;69.99;99881.53;5085679;28;20043;-91
2021/05/16 02:07:14;;;;;;;15.63;9.02;;;;;;;14.58;70.79;99881.28;5068735;28;20491;-91
2021/05/16 02:10:05;;;;;;;9.90;8.50;;;;;;;14.53;70.70;99887.81;5065953;28;20052;-92
2021/05/16 02:13:09;;;;;;;11.05;9.35;;;;;;;14.68;70.09;99886.94;5078287;28;20051;-92
2021/05/16 02:15:56;;;;;;;17.48;9.93;;;;;;;14.70;70.39;99873.69;5086696;28;20051;-92
2021/05/16 02:18:44;;;;;;;13.18;8.90;;;;;;;14.71;69.07;99863.53;5085757;28;20059;-92
2021/05/16 02:21:36;;;;;;;14.52;10.18;;;;;;;14.61;69.83;99858.66;5068347;28;20043;-92
2021/05/16 02:24:23;;;;;;;26.17;10.32;;;;;;;14.69;69.56;99863.09;5077181;28;20066;-91
2021/05/16 02:27:21;;;;;;;15.07;9.65;;;;;;;14.84;68.66;99857.50;5083257;28;20044;-91
2021/05/16 02:30:12;;;;;;;11.55;9.77;;;;;;;14.77;69.34;99868.34;5079654;28;20048;-91
2021/05/16 02:32:59;;;;;;;15.20;9.68;;;;;;;14.54;69.36;99864.78;5083417;28;20060;-91
2021/05/16 02:35:44;;;;;;;11.65;9.95;;;;;;;14.57;69.17;99874.22;5081936;28;20059;-92
2021/05/16 02:38:30;;;;;;;19.02;10.35;;;;;;;14.57;68.87;99861.34;5081585;28;20048;-91
2021/05/16 02:41:15;;;;;;;15.50;10.10;;;;;;;14.51;69.31;99865.50;5070447;28;20044;-93
2021/05/16 02:44:00;;;;;;;12.50;10.13;;;;;;;14.49;69.14;99868.59;5078079;28;20048;-90
2021/05/16 02:49:51;;;;;;;13.02;10.27;;;;;;;14.66;68.50;99863.81;5083507;28;20051;-90
2021/05/16 02:52:36;;;;;;;11.27;9.15;;;;;;;14.57;68.55;99871.47;5070806;28;20052;-90
2021/05/16 02:55:23;;;;;;;16.52;9.27;;;;;;;14.50;69.08;99858.44;5085414;28;20416;-91
2021/05/16 02:58:09;;;;;;;13.80;10.90;;;;;;;14.52;68.44;99867.91;5085747;28;20047;-91
2021/05/16 03:01:04;;;;;;;14.70;9.90;;;;;;;14.58;68.46;99864.88;5064216;28;20052;-91
2021/05/16 03:04:18;;;;;;;13.35;10.43;;;;;;;14.56;68.35;99870.69;5086662;28;20051;-90
2021/05/16 03:07:03;;;;;;;15.60;10.70;;;;;;;14.54;68.65;99870.25;5070188;28;20402;-90
2021/05/16 03:09:49;;;;;;;15.73;10.00;;;;;;;14.62;68.60;99865.72;5086771;28;20207;-90
2021/05/16 03:12:52;;;;;;;;;;;;;;;14.67;68.55;99870.88;5088483;28;20416;-91
2021/05/16 03:15:38;;;;;;;12.48;10.65;;;;;;;14.44;69.70;99860.69;5083373;28;20292;-91
2021/05/16 03:18:24;;;;;;;16.48;11.07;;;;;;;14.40;69.56;99853.56;5086790;28;20052;-90
2021/05/16 03:21:10;;;;;;;12.55;10.43;;;;;;;14.21;70.69;99868.03;5068860;28;20409;-91
2021/05/16 03:24:14;;;;;;;17.40;10.75;;;;;;;14.07;71.01;99871.25;5083439;28;20052;-92
2021/05/16 03:26:59;;;;;;;12.50;10.35;;;;;;;13.87;71.54;99861.44;5076004;28;20063;-91
2021/05/16 03:29:44;;;;;;;;;;;;;;;13.96;71.45;99866.72;5087938;28;20438;-90
2021/05/16 03:32:29;;;;;;;14.02;11.55;;;;;;;14.02;71.71;99868.00;5083650;28;19912;-90
2021/05/16 03:35:14;;;;;;;12.65;11.27;;;;;;;14.09;71.03;99881.81;5090115;28;20056;-90
2021/05/16 03:38:00;;;;;;;13.15;11.68;;;;;;;14.12;70.89;99881.09;5070925;28;20047;-91
2021/05/16 03:40:45;;;;;;;15.50;11.32;;;;;;;14.21;69.76;99875.44;5083409;28;20051;-90
2021/05/16 03:43:49;;;;;;;16.15;10.02;;;;;;;13.82;70.45;99871.84;5090437;28;20055;-90
2021/05/16 03:46:34;;;;;;;11.20;9.35;;;;;;;13.54;71.96;99872.03;5085152;28;20519;-90
2021/05/16 03:49:19;;;;;;;17.60;8.38;;;;;;;13.50;72.93;99877.41;5088862;28;20052;-91
2021/05/16 03:52:04;;;;;;;;;;;;;;;13.70;72.30;99876.31;5091075;28;20047;-90
2021/05/16 03:54:50;;;;;;;13.73;11.00;;;;;;;13.76;71.91;99885.03;5087346;28;19912;-92
2021/05/16 03:57:35;;;;;;;14.55;11.80;;;;;;;13.83;71.65;99879.72;5090804;28;20056;-90
2021/05/16 04:00:20;;;;;;;;;;;;;;;14.02;71.10;99885.19;5085464;28;20056;-91
2021/05/16 04:03:05;;;;;;;17.10;12.50;;;;;;;14.09;70.76;99876.34;5086494;28;19916;-91
2021/05/16 04:05:50;;;;;;;;;;;;;;;13.98;71.26;99891.72;5086021;28;20043;-91
2021/05/16 04:08:35;;;;;;;14.50;11.32;;;;;;;13.89;71.42;99896.63;5086223;28;19916;-91
2021/05/16 04:11:20;;;;;;;15.50;12.23;;;;;;;13.88;71.37;99884.88;5089319;28;20119;-91
2021/05/16 04:14:06;;;;;;;13.45;11.10;;;;;;;13.93;71.41;99892.00;5083376;28;20047;-90
2021/05/16 04:16:51;;;;;;;16.08;11.10;;;;;;;13.90;71.59;99896.28;5089268;28;20047;-90
2021/05/16 04:19:36;;;;;;;9.57;8.20;;;;;;;13.96;71.39;99896.78;5085069;28;20071;-90
2021/05/16 04:22:21;;;;;;;12.98;10.98;;;;;;;14.05;71.09;99909.09;5089110;28;20047;-90
2021/05/16 04:25:06;;;;;;;16.08;8.13;;;;;;;14.07;70.83;99916.91;5087108;28;20048;-90
2021/05/16 04:27:51;;;;;;;14.57;11.38;;;;;;;14.04;71.22;99914.91;5083994;28;20059;-90
2021/05/16 04:30:37;;;;;;;;;;;;;;;14.04;71.13;99917.66;5082676;28;20432;-92
2021/05/16 04:33:22;;;;;;;16.92;11.48;;;;;;;14.01;71.38;99912.91;5087762;28;19913;-91
2021/05/16 04:36:07;;;;;;;;;;;;;;;14.08;71.31;99910.31;5084041;28;20048;-91
2021/05/16 04:38:53;;;;;;;15.90;11.77;;;;;;;14.08;71.38;99916.56;5085901;28;19913;-92
2021/05/16 04:41:38;;;;;;;13.25;11.32;;;;;;;14.06;71.35;99910.69;5084808;28;20522;-92
2021/05/16 04:44:23;;;;;;;;;;;;;;;14.08;71.79;99913.84;5084883;28;20052;-91
2021/05/16 04:47:09;;;;;;;12.57;10.02;;;;;;;14.14;71.50;99919.81;5097693;28;19912;-92
2021/05/16 04:53:16;;;;;;;18.63;13.23;;;;;;;14.23;71.88;99925.88;5084812;28;20431;-92
2021/05/16 04:56:54;;;;;;;15.38;13.00;;;;;;;14.32;71.20;99928.41;5084435;28;20056;-92
2021/05/16 04:59:40;;;;;;;15.77;13.05;;;;;;;14.30;71.39;99926.03;5083574;28;20047;-91
2021/05/16 05:02:25;;;;;;;;;;;;;;;14.27;72.17;99936.91;5085445;28;20056;-90
2021/05/16 05:05:10;;;;;;;;;;;;;;;14.35;72.13;99949.56;5085133;28;19917;-90
2021/05/16 05:07:56;;;;;;;17.60;13.30;;;;;;;14.30;72.20;99950.63;5085791;28;19916;-90
2021/05/16 05:10:40;;;;;;;13.88;10.48;;;;;;;14.24;72.81;99937.59;5079983;28;20547;-91
2021/05/16 05:13:25;;;;;;;17.13;14.07;;;;;;;14.29;73.06;99934.56;5084681;28;20048;-91
2021/05/16 05:16:11;;;;;;;15.48;13.10;;;;;;;14.34;73.06;99937.81;5090851;28;20044;-91
2021/05/16 05:18:56;;;;;;;15.02;9.55;;;;;;;14.45;72.87;99955.28;5085202;28;20523;-90
2021/05/16 05:21:41;;;;;;;20.42;13.18;;;;;;;14.44;73.05;99942.75;5083253;28;20055;-90
2021/05/16 05:24:26;;;;;;;12.18;9.93;;;;;;;14.49;72.02;99945.19;5088400;28;20047;-89
2021/05/16 05:27:11;;;;;;;;;;;;;;;14.59;71.27;99935.63;5080124;28;20051;-90
2021/05/16 05:29:56;;;;;;;17.00;12.18;;;;;;;14.62;71.59;99936.84;5101152;28;19916;-90
2021/05/16 05:32:41;;;;;;;17.13;13.18;;;;;;;14.71;71.48;99949.16;5084871;28;20047;-90
2021/05/16 05:35:46;;;;;;;16.33;12.93;;;;;;;14.76;71.22;99959.03;5079926;28;20051;-90
2021/05/16 05:38:31;;;;;;;15.02;13.38;;;;;;;14.80;70.46;99946.97;5082093;28;20056;-90
2021/05/16 05:41:16;;;;;;;19.63;12.73;;;;;;;14.83;70.33;99940.00;5081857;28;20043;-89
2021/05/16 05:43:49;;;;;;;17.00;13.20;;;;;;;14.94;69.94;99949.19;5114994;22;20074;-84
2021/05/16 05:46:52;;;;;;;19.83;11.93;;;;;;;15.01;70.15;99938.38;5100228;28;20051;-85
2021/05/16 05:49:38;;;;;;;13.52;11.93;;;;;;;14.87;71.19;99954.56;5097561;28;20047;-82
2021/05/16 05:52:42;;;;;;;19.17;13.20;;;;;;;14.92;71.62;99968.75;5099053;28;20047;-80
2021/05/16 06:01:35;;;;;;;17.60;13.15;;;;;;;15.09;70.64;99978.41;5098344;28;20103;-83
2021/05/16 06:04:20;;;;;;;;;;;;;;;15.14;70.31;99983.59;5103001;28;20066;-83
2021/05/16 06:07:06;;;;;;;18.83;11.68;;;;;;;15.19;70.55;99986.03;5084794;28;20295;-83
2021/05/16 06:09:53;;;;;;;15.98;12.25;;;;;;;15.30;69.48;99984.28;5097215;28;20062;-82
2021/05/16 06:12:39;;;;;;;18.92;11.90;;;;;;;15.21;70.51;99980.19;5093336;28;20515;-82
2021/05/16 06:15:24;;;;;;;18.38;13.20;;;;;;;15.21;70.13;99975.53;5099048;28;20047;-82
2021/05/16 06:18:09;;;;;;;;;;;;;;;15.31;69.86;99980.41;5101070;28;20059;-84
2021/05/16 06:24:08;;;;;;;18.35;12.05;;;;;;;15.33;70.07;99978.09;5097272;28;20047;-83
2021/05/16 06:26:54;;;;;;;15.73;12.40;;;;;;;15.34;69.60;99976.91;5094846;28;20518;-83
2021/05/16 06:29:39;;;;;;;15.60;10.85;;;;;;;15.37;69.53;99980.88;5092740;28;20059;-83
2021/05/16 06:32:24;;;;;;;11.70;8.63;;;;;;;15.48;69.09;99983.81;5096779;28;20055;-83
2021/05/16 06:35:10;;;;;;;15.52;9.25;;;;;;;15.50;68.51;99995.19;5099333;28;20047;-82
2021/05/16 06:37:55;;;;;;;14.20;9.50;;;;;;;15.53;68.85;99991.75;5083942;28;20063;-82
2021/05/16 06:40:40;;;;;;;;;;;;;;;15.55;68.51;99979.25;5086906;28;20071;-83
2021/05/16 06:46:28;;;;;;;13.60;9.00;;;;;;;15.69;68.20;99993.22;5110023;28;20249;-84
2021/05/16 06:49:12;;;;;;;;;;;;;;;15.76;68.04;100000.75;5106692;28;20428;-84
2021/05/16 06:51:57;;;;;;;15.80;9.88;;;;;;;15.77;67.88;100003.13;5103901;28;19912;-84
2021/05/16 06:54:42;;;;;;;13.50;10.15;;;;;;;15.77;67.67;99999.59;5101440;28;20059;-84
2021/05/16 06:57:27;;;;;;;15.45;10.68;;;;;;;15.86;67.12;99996.59;5105688;28;20043;-84
2021/05/16 07:03:16;;;;;;;12.88;9.65;;;;;;;16.10;66.23;99991.47;5101844;28;19912;-85
2021/05/16 07:06:01;;;;;;;;;;;;;;;16.24;65.62;99994.44;5103995;28;20071;-84
2021/05/16 07:09:05;;;;;;;13.27;9.93;;;;;;;16.32;65.45;99991.78;5101375;28;19912;-84
2021/05/16 07:11:50;;;;;;;11.20;9.30;;;;;;;16.33;65.66;99994.16;5103803;28;20269;-83
2021/05/16 07:14:36;;;;;;;14.38;9.85;;;;;;;16.33;66.03;99996.13;5101690;28;20048;-85
2021/05/16 07:17:21;;;;;;;;;;;;;;;16.25;66.01;99990.50;5099732;28;20046;-84
2021/05/16 07:20:07;;;;;;;11.38;8.52;;;;;;;16.27;64.91;99990.94;5104116;28;19916;-84
2021/05/16 07:23:11;;;;;;;11.73;9.43;;;;;;;16.36;65.30;100000.84;5100804;28;20043;-83
2021/05/16 07:25:58;;;;;;;9.52;8.38;;;;;;;16.31;65.21;100010.19;5100398;28;20063;-84
2021/05/16 07:28:42;;;;;;;12.07;9.25;;;;;;;16.40;65.70;100015.44;5105086;28;20051;-82
2021/05/16 07:31:27;;;;;;;;;;;;;;;16.45;64.67;100015.09;5104856;28;20044;-85
2021/05/16 07:34:12;;;;;;;17.93;9.10;;;;;;;16.45;64.96;100010.41;5096580;28;20399;-84
2021/05/16 07:36:57;;;;;;;13.55;8.13;;;;;;;16.48;65.45;100017.88;5089041;28;20040;-84
2021/05/16 07:39:42;;;;;;;16.48;10.05;;;;;;;16.49;65.88;100022.22;5087412;28;20051;-83
2021/05/16 07:42:28;;;;;;;17.10;10.73;;;;;;;16.69;64.66;100014.66;5103591;28;20040;-84
2021/05/16 07:45:31;;;;;;;;;;;;;;;16.77;64.59;100024.56;5107433;28;20043;-84
2021/05/16 07:48:17;;;;;;;12.68;7.97;;;;;;;16.75;65.06;100031.59;5102005;28;19912;-84
2021/05/16 07:51:20;;;;;;;15.38;9.30;;;;;;;16.81;64.39;100030.13;5099499;28;20079;-85
2021/05/16 07:54:06;;;;;;;13.35;8.55;;;;;;;16.86;64.79;100038.03;5098798;28;20043;-84
2021/05/16 07:59:54;;;;;;;15.02;9.60;;;;;;;17.02;63.79;100030.34;5105582;28;20413;-84
2021/05/16 08:02:58;;;;;;;;;;;;;;;17.12;63.62;100026.94;5094142;28;20064;-82
2021/05/16 08:05:43;;;;;;;14.93;9.02;;;;;;;17.12;63.16;100023.41;5084795;28;19923;-85
2021/05/16 08:11:32;;;;;;;12.52;9.40;;;;;;;17.37;62.68;100016.22;5077876;28;19913;-85
2021/05/16 08:14:17;;;;;;;;;;;;;;;17.45;62.60;100017.88;5078892;28;20048;-85
2021/05/16 08:17:39;;;;;;;17.13;9.55;;;;;;;17.57;61.98;100016.81;5104602;28;19916;-85
2021/05/16 08:20:24;;;;;;;12.63;8.43;;;;;;;17.63;61.36;100013.34;5126588;28;20066;-85
2021/05/16 08:23:09;;;;;;;20.30;10.13;;;;;;;17.59;60.92;100019.94;5122489;28;20040;-86
2021/05/16 08:25:54;;;;;;;;;;;;;;;17.63;61.77;100018.03;5123464;28;20043;-85
2021/05/16 08:28:38;;;;;;;15.40;9.30;;;;;;;17.61;61.62;100018.44;5127405;28;19911;-85
2021/05/16 08:31:23;;;;;;;12.25;8.57;;;;;;;17.52;63.03;100017.94;5126031;28;20046;-85
2021/05/16 08:34:28;;;;;;;11.17;8.53;;;;;;;17.55;62.27;100022.66;5118357;28;20044;-86
2021/05/16 08:37:14;;;;;;;11.95;9.20;;;;;;;17.57;61.72;100028.59;5124404;28;20040;-86
2021/05/16 08:39:59;;;;;;;13.98;8.25;;;;;;;17.46;61.91;100028.50;5119472;28;20114;-86
2021/05/16 08:42:45;;;;;;;12.60;9.07;;;;;;;17.52;62.52;100039.94;5117455;28;20047;-85
2021/05/16 08:45:31;;;;;;;15.40;8.13;;;;;;;17.47;62.50;100034.78;5123359;28;20065;-85
2021/05/16 08:48:16;;;;;;;10.98;8.18;;;;;;;17.43;61.33;100033.94;5122948;28;20506;-84
2021/05/16 08:51:02;;;;;;;11.32;7.25;;;;;;;17.44;61.71;100039.06;5122593;28;20483;-85
2021/05/16 08:53:46;;;;;;;;;;;;;;;17.43;62.46;100033.94;5116101;28;20040;-84
2021/05/16 08:56:31;;;;;;;15.68;7.90;;;;;;;17.39;62.41;100036.66;5122619;28;19911;-84
2021/05/16 08:59:16;;;;;;;;;;;;;;;17.44;62.00;100043.75;5123259;28;20052;-84
2021/05/16 09:02:19;;;;;;;13.35;8.93;;;;;;;17.42;62.74;100041.38;5116994;28;20112;-84
2021/05/16 09:08:30;;;;;;;12.00;8.40;;;;;;;17.41;63.05;100044.53;5127122;28;20494;-85
2021/05/16 09:11:21;;;;;;;;;;;;;;;17.41;62.51;100041.78;5123602;28;20043;-85
2021/05/16 09:17:30;;;;;;;10.43;8.95;;;;;;;17.30;63.01;100049.13;5125610;28;20417;-85
2021/05/16 09:20:23;;;;;;;10.45;8.70;;;;;;;17.39;62.70;100035.84;5124236;28;20718;-85
2021/05/16 09:23:27;;;;;;;13.32;8.30;;;;;;;17.54;61.66;100045.81;5103459;28;20050;-85
2021/05/16 09:26:34;;;;;;;12.18;7.57;;;;;;;17.61;61.36;100045.16;5124137;28;20519;-80
2021/05/16 09:29:24;;;;;;;13.68;8.00;;;;;;;17.63;60.61;100053.78;5123717;28;20051;-84
2021/05/16 09:32:09;;;;;;;11.77;7.38;;;;;;;17.64;60.55;100050.66;5118469;28;20039;-84
2021/05/16 09:34:54;;;;;;;11.57;7.07;;;;;;;17.70;60.61;100051.91;5096962;28;20048;-85
2021/05/16 09:37:55;;;;;;;14.63;8.13;;;;;;;17.75;59.92;100051.56;5098097;28;20039;-85
2021/05/16 09:40:43;;;;;;;12.90;7.53;;;;;;;17.78;59.73;100047.25;5105699;28;20051;-86
2021/05/16 09:43:30;;;;;;;9.07;6.75;;;;;;;17.87;58.25;100045.78;5081399;28;20043;-87
2021/05/16 09:46:34;;;;;;;9.70;6.80;;;;;;;17.99;58.33;100052.94;5092092;28;20051;-85
2021/05/16 09:49:25;;;;;;;9.10;6.50;;;;;;;18.06;58.30;100052.19;5099015;28;20047;-84
2021/05/16 09:52:19;;;;;;;10.98;6.70;;;;;;;18.11;57.48;100049.88;5106938;28;20059;-86
2021/05/16 09:55:06;;;;;;;7.53;5.88;;;;;;;18.15;57.78;100055.41;5104942;28;20036;-86
2021/05/16 09:57:52;;;;;;;13.75;6.35;;;;;;;18.17;57.11;100061.34;5104255;28;20062;-87
2021/05/16 10:00:36;;;;;;;;;;;;;;;18.22;56.10;100060.97;5106258;28;20044;-86
2021/05/16 10:03:22;;;;;;;12.63;6.40;;;;;;;18.29;56.83;100050.00;5100700;28;19911;-87
2021/05/16 10:06:07;;;;;;;6.95;5.28;;;;;;;18.41;56.55;100046.16;5106260;28;20055;-86
2021/05/16 10:08:54;;;;;;;9.52;5.38;;;;;;;18.39;56.43;100050.06;5106126;28;20059;-89
2021/05/16 10:11:41;;;;;;;15.55;6.72;;;;;;;18.46;56.78;100040.28;5101875;28;20047;-88
2021/05/16 10:14:29;;;;;;;9.52;6.07;;;;;;;18.68;56.63;100036.50;5105876;28;20562;-86
2021/05/16 10:17:15;;;;;;;8.43;5.88;;;;;;;18.74;55.35;100023.94;5105027;28;20040;-88
2021/05/16 10:20:03;;;;;;;15.93;6.82;;;;;;;18.78;56.00;100017.28;5105313;28;20055;-87
2021/05/16 10:23:00;;;;;;;13.43;6.80;;;;;;;18.89;55.13;100016.53;5097476;28;20416;-86
2021/05/16 10:25:48;;;;;;;14.20;5.72;;;;;;;18.91;55.55;100019.66;5105246;28;20518;-86
2021/05/16 10:28:56;;;;;;;12.77;6.13;;;;;;;18.91;54.87;100019.66;5105152;28;20032;-87
2021/05/16 10:32:06;;;;;;;7.70;5.53;;;;;;;19.00;55.64;100031.09;5096440;28;20044;-86
2021/05/16 10:34:55;;;;;;;8.25;5.05;;;;;;;19.13;54.62;100037.88;5103409;28;20511;-87
2021/05/16 10:37:56;;;;;;;9.18;5.90;;;;;;;19.13;54.45;100035.91;5102885;28;20050;-87
2021/05/16 10:41:16;;;;;;;10.07;5.20;;;;;;;19.08;54.85;100029.97;5102466;28;20051;-86
2021/05/16 10:44:30;;;;;;;8.90;5.95;;;;;;;19.07;54.86;100034.69;5102388;28;20131;-87
2021/05/16 10:47:41;;;;;;;11.50;5.22;;;;;;;19.12;54.37;100036.28;5100143;28;20519;-83
2021/05/16 10:50:26;;;;;;;11.15;5.10;;;;;;;19.13;54.97;100037.88;5091245;28;20036;-83
2021/05/16 10:53:39;;;;;;;10.45;6.00;;;;;;;19.13;54.93;100041.41;5076983;28;20052;-83
2021/05/16 10:56:24;;;;;;;10.98;5.38;;;;;;;19.10;54.44;100041.38;5087086;28;20041;-84
2021/05/16 10:59:27;;;;;;;7.03;5.00;;;;;;;19.10;54.34;100025.63;5084785;28;20409;-84
2021/05/16 11:02:50;;;;;;;8.25;5.25;;;;;;;19.20;53.34;100026.84;5083713;28;20047;-84
2021/05/16 11:08:33;;;;;;;8.13;5.30;;;;;;;19.20;54.23;100029.59;5087960;28;20035;-83
2021/05/16 11:11:37;;;;;;;;;;;;;;;19.15;53.59;100024.47;5083938;28;20071;-87
2021/05/16 11:14:35;;;;;;;8.77;5.35;;;;;;;19.13;54.32;100029.59;5083382;28;19916;-84
2021/05/16 11:17:26;;;;;;;8.57;5.57;;;;;;;19.11;54.71;100018.16;5086497;28;20040;-86
2021/05/16 11:20:33;;;;;;;9.57;5.10;;;;;;;19.13;55.30;100021.31;5076538;28;20056;-87
2021/05/16 11:23:26;;;;;;;14.73;6.15;;;;;;;19.07;55.38;100020.13;5077030;28;20043;-85
2021/05/16 11:26:13;;;;;;;11.80;5.43;;;;;;;19.06;55.35;100015.78;5082577;28;20053;-85
2021/05/16 11:28:59;;;;;;;9.15;5.57;;;;;;;19.01;55.06;100018.91;5082294;28;20037;-85
2021/05/16 11:31:44;;;;;;;10.73;6.38;;;;;;;18.94;56.84;100013.41;5075641;28;20535;-84
2021/05/16 11:34:29;;;;;;;10.95;6.40;;;;;;;18.95;56.89;100014.94;5067174;28;20044;-84
2021/05/16 11:37:21;;;;;;;9.60;5.53;;;;;;;18.92;56.49;100007.47;5089803;28;20047;-85
2021/05/16 11:40:23;;;;;;;10.00;6.47;;;;;;;18.73;59.25;100020.41;5102450;28;20403;-85
2021/05/16 11:43:09;;;;;;;12.68;7.63;;;;;;;18.29;63.50;100016.97;5082459;28;20051;-84
2021/05/16 11:45:57;;;;;;;14.77;9.07;;;;;;;17.86;70.87;100015.91;5099453;23;20414;-86
2021/05/16 11:48:43;;;;;;;13.80;9.68;;;;;;;17.15;74.86;100003.41;5075614;28;20410;-85
2021/05/16 11:51:28;;;;;;;15.35;11.60;;;;;;;17.10;76.58;100007.31;5079993;28;20036;-86
2021/05/16 11:54:15;;;;;;;19.35;10.80;;;;;;;17.17;75.73;100009.34;5088531;28;20505;-85
2021/05/16 11:57:01;;;;;;;17.15;10.38;;;;;;;17.34;75.64;100005.97;5102040;28;20032;-85
2021/05/16 11:59:46;;;;;;;11.50;8.18;;;;;;;17.43;72.52;100015.47;5100470;28;20059;-86
2021/05/16 12:02:35;;;;;;;20.85;11.07;;;;;;;17.57;71.06;100003.84;5097844;28;20047;-87
2021/05/16 12:05:26;;;;;;;12.93;9.55;;;;;;;17.67;70.46;100005.94;5096095;28;20501;-86
2021/05/16 12:08:20;;;;;;;12.88;8.43;;;;;;;17.71;68.18;100009.50;5099281;28;20048;-87
2021/05/16 12:11:05;;;;;;;15.23;10.07;;;;;;;17.78;68.52;100015.03;5097491;28;20048;-86
2021/05/16 12:14:30;;;;;;;12.05;8.93;;;;;;;17.87;66.69;100003.72;5094245;28;20043;-87
2021/05/16 12:17:14;;;;;;;22.77;10.13;;;;;;;17.94;66.74;99999.06;5088590;28;20051;-84
2021/05/16 12:20:00;;;;;;;12.90;9.32;;;;;;;18.06;66.58;99992.47;5093886;28;20048;-85
2021/05/16 12:22:47;;;;;;;16.60;8.88;;;;;;;18.07;66.57;99993.25;5099699;28;20437;-86
2021/05/16 12:25:32;;;;;;;16.55;9.93;;;;;;;18.08;67.86;100001.09;5095447;28;20035;-85
2021/05/16 12:28:18;;;;;;;13.40;9.40;;;;;;;18.01;66.73;99994.78;5094714;28;20039;-87
2021/05/16 12:31:04;;;;;;;14.18;10.60;;;;;;;18.07;67.79;99993.25;5074400;28;20505;-86
2021/05/16 12:33:52;;;;;;;19.98;9.30;;;;;;;17.84;69.11;100008.00;5098479;28;20040;-85
2021/05/16 12:36:44;;;;;;;17.40;9.55;;;;;;;17.49;70.43;100008.47;5101453;28;20410;-87
2021/05/16 12:39:50;;;;;;;15.02;9.40;;;;;;;17.15;72.02;100009.72;5099173;28;20055;-85
2021/05/16 12:42:42;;;;;;;;;;;;;;;17.26;71.57;100002.38;5096888;28;20414;-86
2021/05/16 12:45:30;;;;;;;11.85;8.02;;;;;;;17.28;71.00;99991.78;5093365;28;19911;-87
2021/05/16 12:48:20;;;;;;;8.48;7.03;;;;;;;17.36;70.39;99989.91;5101113;28;20043;-83
2021/05/16 12:51:07;;;;;;;11.95;7.15;;;;;;;17.21;70.14;99999.97;5100930;28;20063;-86
2021/05/16 12:53:51;;;;;;;10.32;7.13;;;;;;;17.26;71.04;100001.59;5100059;28;20051;-85
2021/05/16 12:56:57;;;;;;;10.02;6.97;;;;;;;17.15;71.15;99989.69;5094270;28;20055;-87
2021/05/16 12:59:42;;;;;;;12.38;7.20;;;;;;;17.20;70.82;99995.63;5101276;28;20054;-89
2021/05/16 13:02:28;;;;;;;;;;;;;;;17.27;70.59;100000.41;5098808;28;20517;-85
2021/05/16 13:05:14;;;;;;;11.93;6.30;;;;;;;17.33;70.47;100009.88;5096675;28;19912;-85
2021/05/16 13:07:59;;;;;;;9.80;6.78;;;;;;;17.37;69.81;99994.25;5100485;28;20054;-85
2021/05/16 13:13:54;;;;;;;12.13;6.40;;;;;;;17.35;70.05;99997.34;5095805;28;20510;-85
2021/05/16 13:16:39;;;;;;;10.68;7.40;;;;;;;17.33;70.42;99990.63;5093841;28;20102;-85
2021/05/16 13:19:34;;;;;;;;;;;;;;;17.44;69.60;99989.59;5097706;28;20059;-85
2021/05/16 13:22:38;;;;;;;11.63;7.05;;;;;;;17.49;69.57;99991.19;5095018;28;19916;-84
2021/05/16 13:25:44;;;;;;;9.45;6.65;;;;;;;17.54;69.64;99991.63;5097773;28;20058;-83
2021/05/16 13:28:29;;;;;;;7.50;6.15;;;;;;;17.57;69.97;99989.31;5099636;28;20047;-87
2021/05/16 13:31:14;;;;;;;9.13;6.22;;;;;;;17.60;69.15;99992.09;5093590;28;20509;-85
2021/05/16 13:37:02;;;;;;;15.48;8.05;;;;;;;17.74;68.93;99994.19;5095032;28;19912;-87
2021/05/16 13:39:47;;;;;;;;;;;;;;;17.76;69.08;99983.59;5098389;28;20521;-87
2021/05/16 13:42:32;;;;;;;12.43;7.03;;;;;;;17.70;69.02;99991.41;5097514;28;19912;-88
2021/05/16 13:45:17;;;;;;;12.75;6.65;;;;;;;17.83;68.67;99975.38;5100055;28;20043;-86
2021/05/16 13:48:21;;;;;;;18.00;7.50;;;;;;;17.81;68.64;99975.78;5099092;28;20051;-87
2021/05/16 13:51:07;;;;;;;12.60;9.27;;;;;;;17.77;68.38;99974.19;5095893;28;20079;-84
2021/05/16 13:53:52;;;;;;;12.65;8.30;;;;;;;17.80;68.41;99971.44;5093535;28;20051;-87
2021/05/16 14:00:00;;;;;;;11.63;7.28;;;;;;;17.76;68.48;99969.84;5100095;28;20047;-84
2021/05/16 14:03:04;;;;;;;12.73;6.72;;;;;;;17.82;67.97;99965.56;5093799;28;20521;-82
2021/05/16 14:05:52;;;;;;;13.43;7.38;;;;;;;17.80;68.35;99960.44;5101711;28;20054;-83
2021/05/16 14:08:37;;;;;;;9.02;6.90;;;;;;;17.84;68.36;99957.72;5100358;28;20051;-81
2021/05/16 14:11:23;;;;;;;20.40;9.00;;;;;;;17.86;68.27;99960.88;5099982;28;20406;-84
2021/05/16 14:14:09;;;;;;;10.48;7.05;;;;;;;17.84;68.67;99952.22;5093046;28;20043;-83